M I D A S
Marine Information and Data Acquisition System
Tripno 2230 of the Zeeleeuw from 2011-08-17 06:11:50 to 2011-08-17 14:39:30
Back to CruiseResearch ActivitiesStationsMapUnderway DataData graphs

EquipmentUnitsComment
TimeDGPSUTC
LatitudeDGPSDM.mWGS84
LongitudeDGPSDM.mWGS84
HeadingGyrodeg 
SOGDGPSknotsSpeed over ground
COGDGPSdegCourse over ground
DepthEcho soundermeters200 kHz
Missing or incorrect values are displayed as -999
Navigation data collected by the RV Zeeleeuw from 2011-08-17 06:15:54 to 2011-08-17 14:50:24
                                                                                    Next 1000 lines
Time Latitude Longitude Heading SOG COG Depth
2011-08-17 06:16:05 51°13.635 2°56.016 108.2 0.5 286 7.4
2011-08-17 06:16:10 51°13.636 2°56.014 108.2 0.6 289 7.5
2011-08-17 06:16:15 51°13.636 2°56.013 108.2 0.8 289 7.5
2011-08-17 06:16:20 51°13.636 2°56.011 108.6 0.9 293 7.6
2011-08-17 06:16:25 51°13.637 2°56.009 109.1 1 293 7.7
2011-08-17 06:16:30 51°13.638 2°56.006 109.7 1.2 294 5.8
2011-08-17 06:16:34 51°13.638 2°56.004 110.3 1.3 293 7.7
2011-08-17 06:16:40 51°13.639 2°56.001 110.6 1.4 292 7.8
2011-08-17 06:16:46 51°13.64 2°55.997 111 1.5 294 -999
2011-08-17 06:16:51 51°13.641 2°55.994 111.1 1.6 296 -999
2011-08-17 06:16:57 51°13.642 2°55.99 111.1 1.7 295 -999
2011-08-17 06:17:02 51°13.643 2°55.987 111.1 1.7 294 -999
2011-08-17 06:17:08 51°13.644 2°55.982 110.8 1.8 293 -999
2011-08-17 06:17:13 51°13.645 2°55.979 110.5 1.8 292 -999
2011-08-17 06:17:18 51°13.646 2°55.975 110.2 1.9 292 -999
2011-08-17 06:17:23 51°13.647 2°55.97 109.7 2.1 292 -999
2011-08-17 06:17:29 51°13.649 2°55.965 109.2 2.3 290 -999
2011-08-17 06:17:33 51°13.65 2°55.961 109 2.4 291 -999
2011-08-17 06:17:38 51°13.651 2°55.956 108.6 2.5 290 -999
2011-08-17 06:17:43 51°13.652 2°55.95 108.4 2.8 290 -999
2011-08-17 06:17:49 51°13.654 2°55.942 108.6 3 288 -999
2011-08-17 06:17:53 51°13.655 2°55.937 109.3 3.2 289 -999
2011-08-17 06:17:58 51°13.656 2°55.93 110.1 3.3 289 -999
2011-08-17 06:18:03 51°13.658 2°55.923 111.1 3.5 289 -999
2011-08-17 06:18:09 51°13.66 2°55.914 111.8 3.8 290 -999
2011-08-17 06:18:14 51°13.662 2°55.905 112.3 4 291 -999
2011-08-17 06:18:18 51°13.664 2°55.899 112.4 4.1 292 -999
2011-08-17 06:18:23 51°13.666 2°55.89 112.4 4.1 291 -999
2011-08-17 06:18:28 51°13.668 2°55.881 112.3 4.3 291 -999
2011-08-17 06:18:34 51°13.671 2°55.871 112.3 4.4 292 -999
2011-08-17 06:18:38 51°13.673 2°55.863 112.4 4.5 292 -999
2011-08-17 06:18:43 51°13.675 2°55.854 112.4 4.5 293 -999
2011-08-17 06:18:48 51°13.677 2°55.845 112.4 4.3 292 -999
2011-08-17 06:18:53 51°13.68 2°55.837 111.9 4.1 292 -999
2011-08-17 06:18:58 51°13.682 2°55.829 111.3 3.9 293 -999
2011-08-17 06:19:03 51°13.684 2°55.821 111.1 3.7 292 -999
2011-08-17 06:19:08 51°13.686 2°55.814 110.8 3.6 293 -999
2011-08-17 06:19:13 51°13.687 2°55.807 110.2 3.4 291 -999
2011-08-17 06:19:18 51°13.689 2°55.8 109.1 3.2 291 -999
2011-08-17 06:19:23 51°13.69 2°55.794 108 3.1 289 -999
2011-08-17 06:19:28 51°13.691 2°55.788 106.6 2.9 286 4.9
2011-08-17 06:19:33 51°13.692 2°55.782 104.9 2.8 285 12
2011-08-17 06:19:38 51°13.693 2°55.776 103.2 2.7 282 12
2011-08-17 06:19:43 51°13.694 2°55.771 101 2.5 281 11.8
2011-08-17 06:19:48 51°13.694 2°55.766 99.2 2.4 280 12.1
2011-08-17 06:19:52 51°13.695 2°55.762 97.6 2.2 279 4.8
2011-08-17 06:19:58 51°13.695 2°55.757 96.6 1.8 277 12.4
2011-08-17 06:20:02 51°13.695 2°55.755 95.4 1.3 281 12.2
2011-08-17 06:20:07 51°13.696 2°55.754 93.8 0.6 289 12.6
2011-08-17 06:20:12 51°13.696 2°55.754 91.1 0.3 33 12.5
2011-08-17 06:20:17 51°13.696 2°55.756 86.9 0.9 63 12.6
2011-08-17 06:20:22 51°13.697 2°55.759 81.5 1.6 67 12.3
2011-08-17 06:20:26 51°13.698 2°55.763 75.1 2.4 64 12.1
2011-08-17 06:20:31 51°13.7 2°55.768 67.4 2.7 60 12.3
2011-08-17 06:20:36 51°13.703 2°55.772 58.9 2.6 49 12.1
2011-08-17 06:20:41 51°13.705 2°55.777 51.5 2.5 48 12.1
2011-08-17 06:20:46 51°13.707 2°55.78 46.5 2.3 42 12.1
2011-08-17 06:20:50 51°13.709 2°55.782 43.1 2.2 40 12
2011-08-17 06:20:56 51°13.712 2°55.786 40.7 2 35 12.3
2011-08-17 06:21:00 51°13.714 2°55.787 38.3 1.7 31 12.1
2011-08-17 06:21:05 51°13.715 2°55.788 35.2 1.2 27 12.1
2011-08-17 06:21:10 51°13.716 2°55.789 31.3 0.9 22 12.1
2011-08-17 06:21:15 51°13.717 2°55.789 27.1 0.5 19 12.2
2011-08-17 06:21:20 51°13.717 2°55.789 23.4 0.1 304 12.2
2011-08-17 06:21:25 51°13.716 2°55.789 20.6 0.4 203 12.2
2011-08-17 06:21:30 51°13.716 2°55.788 18.2 0.7 205 12.1
2011-08-17 06:21:34 51°13.715 2°55.788 16.1 1 200 12.1
2011-08-17 06:21:40 51°13.713 2°55.787 14.5 1.3 200 12.1
2011-08-17 06:21:45 51°13.711 2°55.785 13.1 1.5 200 -999
2011-08-17 06:21:51 51°13.709 2°55.784 12.1 1.2 203 -999
2011-08-17 06:21:57 51°13.708 2°55.783 10.4 0.5 220 -999
2011-08-17 06:22:02 51°13.709 2°55.782 7.1 0.5 315 -999
2011-08-17 06:22:08 51°13.71 2°55.78 0.9 1.2 334 -999
2011-08-17 06:22:13 51°13.713 2°55.779 351.7 2 333 -999
2011-08-17 06:22:18 51°13.716 2°55.776 343 2.5 328 -999
2011-08-17 06:22:23 51°13.719 2°55.772 335.1 3.1 323 -999
2011-08-17 06:22:28 51°13.723 2°55.767 330 3.8 322 -999
2011-08-17 06:22:33 51°13.728 2°55.76 325.5 4.4 319 12
2011-08-17 06:22:38 51°13.733 2°55.753 323.5 4.8 319 11.9
2011-08-17 06:22:42 51°13.737 2°55.747 322 5.3 317 11.7
2011-08-17 06:22:47 51°13.743 2°55.739 321 5.6 318 11.6
2011-08-17 06:22:53 51°13.75 2°55.728 320.8 6 316 11.2
2011-08-17 06:22:58 51°13.757 2°55.718 320.6 6.3 318 10.7
2011-08-17 06:23:02 51°13.762 2°55.71 320.7 6.5 317 11.1
2011-08-17 06:23:07 51°13.769 2°55.701 321.5 6.8 320 11.5
2011-08-17 06:23:12 51°13.776 2°55.691 322.5 7 319 -999
2011-08-17 06:23:18 51°13.786 2°55.68 323 7.1 322 11.5
2011-08-17 06:23:22 51°13.792 2°55.672 323.8 7.3 322 11.6
2011-08-17 06:23:27 51°13.8 2°55.662 324.6 7.3 324 11.6
2011-08-17 06:23:32 51°13.809 2°55.653 326.1 7.4 325 11.7
2011-08-17 06:23:38 51°13.819 2°55.641 327.7 7.6 327 11.6
2011-08-17 06:23:42 51°13.827 2°55.634 329.1 7.7 329 11.6
2011-08-17 06:23:47 51°13.836 2°55.626 330.8 7.8 331 11.5
2011-08-17 06:23:52 51°13.846 2°55.619 332.7 7.8 333 11.6
2011-08-17 06:23:57 51°13.856 2°55.611 334.7 8 333 11.6
2011-08-17 06:24:02 51°13.866 2°55.603 335.6 8.1 334 -999
2011-08-17 06:24:07 51°13.876 2°55.595 336 8.1 335 11.5
2011-08-17 06:24:12 51°13.886 2°55.588 336.3 8.2 335 11.6
2011-08-17 06:24:17 51°13.896 2°55.58 337.3 8.2 336 11.6
2011-08-17 06:24:22 51°13.907 2°55.573 338.1 8.3 336 11.6
2011-08-17 06:24:27 51°13.918 2°55.566 338.1 8.3 335 11.6
2011-08-17 06:24:32 51°13.928 2°55.557 337.8 8.4 335 11.7
2011-08-17 06:24:36 51°13.936 2°55.551 337.8 8.4 335 11.7
2011-08-17 06:24:41 51°13.947 2°55.543 337.9 8.4 336 -999
2011-08-17 06:24:47 51°13.96 2°55.535 338 8.4 336 -999
2011-08-17 06:24:52 51°13.971 2°55.527 337.9 8.5 335 -999
2011-08-17 06:24:58 51°13.984 2°55.518 338.1 8.5 336 11.6
2011-08-17 06:25:02 51°13.992 2°55.512 338.3 8.5 335 -999
2011-08-17 06:25:08 51°14.005 2°55.503 338.2 8.5 337 -999
2011-08-17 06:25:13 51°14.016 2°55.495 338.2 8.5 336 -999
2011-08-17 06:25:18 51°14.026 2°55.487 338.4 8.5 338 11.5
2011-08-17 06:25:23 51°14.037 2°55.48 339 8.5 336 -999
2011-08-17 06:25:28 51°14.048 2°55.472 338.9 8.5 336 11.4
2011-08-17 06:25:33 51°14.058 2°55.463 338.1 8.4 334 11.4
2011-08-17 06:25:38 51°14.069 2°55.455 337 8.5 334 11.3
2011-08-17 06:25:42 51°14.077 2°55.448 336.5 8.5 335 11.3
2011-08-17 06:25:47 51°14.088 2°55.44 337 8.5 335 11.3
2011-08-17 06:25:52 51°14.098 2°55.432 337.4 8.4 336 11.3
2011-08-17 06:25:58 51°14.11 2°55.422 337.7 8.4 335 11.3
2011-08-17 06:26:02 51°14.119 2°55.416 337.6 8.4 334 11.3
2011-08-17 06:26:07 51°14.129 2°55.408 336.8 8.3 333 11.2
2011-08-17 06:26:12 51°14.14 2°55.4 336.1 8.3 334 11.2
2011-08-17 06:26:17 51°14.15 2°55.392 336.4 8.3 334 11.1
2011-08-17 06:26:23 51°14.163 2°55.382 336.9 8.4 334 11.1
2011-08-17 06:26:28 51°14.173 2°55.374 336.2 8.4 333 11.1
2011-08-17 06:26:33 51°14.183 2°55.365 335.4 8.4 333 11.1
2011-08-17 06:26:38 51°14.194 2°55.357 335.4 8.4 332 11.2
2011-08-17 06:26:42 51°14.202 2°55.35 334.8 8.5 332 11.4
2011-08-17 06:26:48 51°14.214 2°55.339 334.4 8.5 332 11.1
2011-08-17 06:26:53 51°14.225 2°55.33 334.6 8.5 332 11.1
2011-08-17 06:26:58 51°14.235 2°55.321 334.8 8.6 331 -999
2011-08-17 06:27:03 51°14.246 2°55.312 334.4 8.7 331 -999
2011-08-17 06:27:08 51°14.257 2°55.303 334 8.7 331 11.1
2011-08-17 06:27:13 51°14.267 2°55.294 333.7 8.8 332 11.1
2011-08-17 06:27:18 51°14.278 2°55.284 334.1 8.8 331 11.1
2011-08-17 06:27:23 51°14.289 2°55.274 333.6 8.9 329 -999
2011-08-17 06:27:28 51°14.299 2°55.264 332.2 8.9 329 10.5
2011-08-17 06:27:33 51°14.31 2°55.254 331.9 9 329 11
2011-08-17 06:27:38 51°14.321 2°55.243 332 9 328 -999
2011-08-17 06:27:43 51°14.331 2°55.233 331.7 9 328 11.1
2011-08-17 06:27:48 51°14.342 2°55.222 331.4 9 328 11.2
2011-08-17 06:27:53 51°14.352 2°55.212 331.5 9 329 -999
2011-08-17 06:27:58 51°14.363 2°55.202 331.2 9 328 11
2011-08-17 06:28:03 51°14.374 2°55.191 330.3 9 328 11.1
2011-08-17 06:28:08 51°14.385 2°55.181 330.4 9.1 329 11.1
2011-08-17 06:28:13 51°14.395 2°55.17 330.9 9.1 328 11
2011-08-17 06:28:18 51°14.406 2°55.16 330.7 9.1 328 11
2011-08-17 06:28:23 51°14.416 2°55.149 330.4 9.1 328 -999
2011-08-17 06:28:28 51°14.427 2°55.138 331 9.1 328 11.1
2011-08-17 06:28:33 51°14.438 2°55.127 331 9.2 328 11
2011-08-17 06:28:38 51°14.448 2°55.116 330.3 9.1 328 11.1
2011-08-17 06:28:43 51°14.459 2°55.106 330.1 9.1 328 10.9
2011-08-17 06:28:48 51°14.47 2°55.095 330.2 9.2 328 11.4
2011-08-17 06:28:52 51°14.478 2°55.086 330.1 9.2 328 11.3
2011-08-17 06:28:57 51°14.489 2°55.075 330.1 9.2 329 11.3
2011-08-17 06:29:02 51°14.5 2°55.065 330.6 9.2 329 11.5
2011-08-17 06:29:07 51°14.511 2°55.054 330.9 9.3 329 11.6
2011-08-17 06:29:12 51°14.523 2°55.043 330.9 9.4 327 11.4
2011-08-17 06:29:17 51°14.534 2°55.031 330.6 9.5 327 11.5
2011-08-17 06:29:22 51°14.544 2°55.019 330.6 9.6 324 12
2011-08-17 06:29:26 51°14.553 2°55.009 329.3 9.7 321 12
2011-08-17 06:29:31 51°14.563 2°54.995 327.5 9.8 318 11.9
2011-08-17 06:29:36 51°14.573 2°54.98 326 9.9 317 11.9
2011-08-17 06:29:41 51°14.584 2°54.965 325.5 10.1 319 12.1
2011-08-17 06:29:46 51°14.595 2°54.95 327 10.3 320 12
2011-08-17 06:29:50 51°14.604 2°54.938 328.3 10.6 320 11.9
2011-08-17 06:29:55 51°14.615 2°54.923 328.5 10.8 320 11.9
2011-08-17 06:30:00 51°14.627 2°54.907 328.1 10.9 320 11.8
2011-08-17 06:30:05 51°14.638 2°54.892 328.1 11 321 11.9
2011-08-17 06:30:10 51°14.651 2°54.876 329.4 11.2 322 11.8
2011-08-17 06:30:15 51°14.663 2°54.861 329.9 11.4 321 11.8
2011-08-17 06:30:20 51°14.676 2°54.846 330.6 11.4 324 11.9
2011-08-17 06:30:25 51°14.688 2°54.83 330.8 11.6 321 11.6
2011-08-17 06:30:30 51°14.701 2°54.815 330.3 11.6 324 11.4
2011-08-17 06:30:34 51°14.712 2°54.802 330.1 11.7 321 11.5
2011-08-17 06:30:40 51°14.727 2°54.782 328.7 11.7 322 11.6
2011-08-17 06:30:45 51°14.739 2°54.766 328.5 11.7 322 11.7
2011-08-17 06:30:50 51°14.752 2°54.75 328.6 11.7 322 11.6
2011-08-17 06:30:54 51°14.762 2°54.737 328.3 11.8 321 11.7
2011-08-17 06:30:59 51°14.775 2°54.721 328.1 11.7 323 11.7
2011-08-17 06:31:05 51°14.791 2°54.702 328.9 11.8 323 11.9
2011-08-17 06:31:10 51°14.804 2°54.687 329.2 11.8 323 12
2011-08-17 06:31:14 51°14.814 2°54.674 329 11.8 322 11.7
2011-08-17 06:31:20 51°14.83 2°54.655 329 11.8 323 12
2011-08-17 06:31:25 51°14.843 2°54.639 329 11.8 322 12
2011-08-17 06:31:30 51°14.856 2°54.622 327.7 11.9 321 12.1
2011-08-17 06:31:34 51°14.866 2°54.609 326.5 11.9 320 12
2011-08-17 06:31:40 51°14.881 2°54.589 326 11.8 321 11.9
2011-08-17 06:31:45 51°14.894 2°54.572 325.7 11.9 320 12
2011-08-17 06:31:50 51°14.907 2°54.556 325.5 11.8 322 12
2011-08-17 06:31:54 51°14.917 2°54.543 327 11.9 323 11.8
2011-08-17 06:31:59 51°14.93 2°54.528 328 11.8 325 11.8
2011-08-17 06:32:05 51°14.947 2°54.511 329.5 11.8 326 11.7
2011-08-17 06:32:10 51°14.961 2°54.497 331.9 11.7 329 11.7
2011-08-17 06:32:15 51°14.975 2°54.485 334.6 11.7 331 11.6
2011-08-17 06:32:20 51°14.99 2°54.473 336.1 11.7 333 11.6
2011-08-17 06:32:25 51°15.004 2°54.462 338.1 11.7 335 11.7
2011-08-17 06:32:30 51°15.019 2°54.452 340.5 11.7 338 11.7
2011-08-17 06:32:34 51°15.031 2°54.445 343.3 11.7 340 11.7
2011-08-17 06:32:40 51°15.05 2°54.436 344.9 11.7 342 11.8
2011-08-17 06:32:45 51°15.065 2°54.429 346.9 11.6 344 11.3
2011-08-17 06:32:50 51°15.081 2°54.423 348.8 11.6 345 11.4
2011-08-17 06:32:54 51°15.094 2°54.418 350.7 11.6 347 10.4
2011-08-17 06:33:00 51°15.112 2°54.412 352 11.5 349 9.5
2011-08-17 06:33:05 51°15.128 2°54.408 353.6 11.5 350 9.6
2011-08-17 06:33:10 51°15.144 2°54.404 355 11.4 352 9.5
2011-08-17 06:33:14 51°15.156 2°54.402 357 11.4 353 9.3
2011-08-17 06:33:20 51°15.175 2°54.399 358.7 11.3 354 9.1
2011-08-17 06:33:25 51°15.191 2°54.396 359.4 11.3 353 9.1
2011-08-17 06:33:30 51°15.206 2°54.392 358.1 11.4 351 9.1
2011-08-17 06:33:34 51°15.219 2°54.389 357 11.3 351 8.8
2011-08-17 06:33:40 51°15.237 2°54.383 356.1 11.3 349 9
2011-08-17 06:33:45 51°15.253 2°54.378 354.2 11.4 348 9.1
2011-08-17 06:33:50 51°15.268 2°54.371 351.9 11.4 345 9.1
2011-08-17 06:33:54 51°15.28 2°54.366 350.7 11.4 347 8.9
2011-08-17 06:33:59 51°15.296 2°54.361 352.1 11.3 350 9.1
2011-08-17 06:34:05 51°15.314 2°54.358 355.9 11.3 355 9.2
2011-08-17 06:34:10 51°15.33 2°54.357 -999 11.3 358 9.2
2011-08-17 06:34:15 51°15.346 2°54.357 2.8 11.3 359 9.4
2011-08-17 06:34:19 51°15.359 2°54.357 4.4 11.3 1 9.3
2011-08-17 06:34:25 51°15.378 2°54.357 5.5 11.3 359 9.4
2011-08-17 06:34:30 51°15.393 2°54.357 5.9 11.3 359 9.3
2011-08-17 06:34:34 51°15.406 2°54.356 4.5 11.3 357 9.5
2011-08-17 06:34:39 51°15.421 2°54.354 2.6 11.4 356 9.5
2011-08-17 06:34:45 51°15.44 2°54.351 0.6 11.4 353 9.6
2011-08-17 06:34:50 51°15.456 2°54.347 358.6 11.4 352 9.6
2011-08-17 06:34:55 51°15.472 2°54.343 356.9 11.5 350 9.7
2011-08-17 06:35:00 51°15.487 2°54.34 356.5 11.5 353 9.7
2011-08-17 06:35:05 51°15.503 2°54.337 357.9 11.5 353 9.8
2011-08-17 06:35:10 51°15.519 2°54.336 0.6 11.4 358 9.9
2011-08-17 06:35:14 51°15.532 2°54.335 2.4 11.4 357 9.8
2011-08-17 06:35:20 51°15.55 2°54.335 4.2 11.4 -999 9.8
2011-08-17 06:35:25 51°15.566 2°54.335 5.6 11.3 -999 9.9
2011-08-17 06:35:30 51°15.582 2°54.335 7.2 11.3 -999 10.1
2011-08-17 06:35:34 51°15.594 2°54.335 6 11.3 358 9.8
2011-08-17 06:35:40 51°15.613 2°54.332 3.7 11.3 355 10
2011-08-17 06:35:45 51°15.629 2°54.329 1 11.3 353 10
2011-08-17 06:35:50 51°15.644 2°54.325 359.1 11.3 352 10
2011-08-17 06:35:54 51°15.657 2°54.323 358.1 11.3 352 10.1
2011-08-17 06:36:00 51°15.675 2°54.319 358.6 11.3 353 10.1
2011-08-17 06:36:05 51°15.691 2°54.316 359.7 11.4 354 10.1
2011-08-17 06:36:10 51°15.706 2°54.313 -999 11.4 354 10.2
2011-08-17 06:36:14 51°15.719 2°54.311 0.7 11.3 356 10.2
2011-08-17 06:36:20 51°15.738 2°54.309 2 11.3 356 10.1
2011-08-17 06:36:25 51°15.753 2°54.307 2.6 11.4 356 10.2
2011-08-17 06:36:30 51°15.769 2°54.306 3.2 11.3 357 10.2
2011-08-17 06:36:34 51°15.782 2°54.305 3.5 11.4 357 10.3
2011-08-17 06:36:40 51°15.801 2°54.304 3.7 11.3 358 10.2
2011-08-17 06:36:45 51°15.816 2°54.303 4.3 11.3 359 10.3
2011-08-17 06:36:50 51°15.832 2°54.304 5.3 11.3 -999 10.4
2011-08-17 06:36:54 51°15.845 2°54.303 6.1 11.3 -999 10.4
2011-08-17 06:37:00 51°15.863 2°54.304 7.2 11.3 1 10.3
2011-08-17 06:37:05 51°15.879 2°54.304 6.8 11.3 358 10.5
2011-08-17 06:37:10 51°15.894 2°54.301 4 11.3 355 10.3
2011-08-17 06:37:14 51°15.907 2°54.299 1.6 11.3 354 10.4
2011-08-17 06:37:20 51°15.926 2°54.295 0.1 11.4 353 10.5
2011-08-17 06:37:25 51°15.942 2°54.293 359.3 11.4 355 10.5
2011-08-17 06:37:30 51°15.957 2°54.291 0.2 11.3 356 10.5
2011-08-17 06:37:34 51°15.97 2°54.291 3.7 11.2 1 10.6
2011-08-17 06:37:40 51°15.989 2°54.291 5.6 11.1 359 10.5
2011-08-17 06:37:45 51°16.003 2°54.293 7.3 10.2 5 10.6
2011-08-17 06:37:50 51°16.016 2°54.296 11 9.5 7 10.7
2011-08-17 06:37:54 51°16.025 2°54.299 14.8 8.7 12 10.8
2011-08-17 06:38:00 51°16.038 2°54.304 18.3 8.2 13 10.9
2011-08-17 06:38:05 51°16.049 2°54.309 21.1 7.7 17 10.7
2011-08-17 06:38:10 51°16.058 2°54.314 23.6 7.3 17 10.6
2011-08-17 06:38:14 51°16.065 2°54.317 25 6.9 18 10.8
2011-08-17 06:38:19 51°16.074 2°54.322 25.7 6.6 16 10.7
2011-08-17 06:38:25 51°16.084 2°54.326 25.2 6.3 16 10.7
2011-08-17 06:38:30 51°16.092 2°54.329 23.3 6 12 10.8
2011-08-17 06:38:34 51°16.099 2°54.33 20.2 5.8 8 10.9
2011-08-17 06:38:40 51°16.108 2°54.331 16.3 5.6 4 10.8
2011-08-17 06:38:45 51°16.116 2°54.332 12.9 5.4 1 10.9
2011-08-17 06:38:50 51°16.123 2°54.331 9.2 5.3 356 11
2011-08-17 06:38:54 51°16.129 2°54.33 4.4 5.2 353 10.9
2011-08-17 06:39:00 51°16.137 2°54.328 1.8 5.1 351 10.9
2011-08-17 06:39:05 51°16.144 2°54.326 0.1 4.9 349 11
2011-08-17 06:39:10 51°16.15 2°54.323 358.6 4.7 348 10.8
2011-08-17 06:39:14 51°16.155 2°54.321 357.5 4.6 346 10.9
2011-08-17 06:39:20 51°16.162 2°54.319 356.7 4.4 346 11.1
2011-08-17 06:39:25 51°16.168 2°54.316 356.3 4.2 345 11
2011-08-17 06:39:30 51°16.173 2°54.313 355.7 4 343 10.9
2011-08-17 06:39:35 51°16.178 2°54.311 355.6 3.9 343 11.1
2011-08-17 06:39:40 51°16.183 2°54.308 355.6 3.8 343 11.1
2011-08-17 06:39:45 51°16.188 2°54.306 356.3 3.7 343 11.1
2011-08-17 06:39:50 51°16.193 2°54.304 357 3.5 343 10.9
2011-08-17 06:39:54 51°16.196 2°54.302 358.3 3.3 345 10.9
2011-08-17 06:40:00 51°16.201 2°54.3 0.1 3.2 345 11.1
2011-08-17 06:40:05 51°16.206 2°54.298 1.7 3.1 346 10.9
2011-08-17 06:40:10 51°16.209 2°54.297 3.7 2.9 347 10.8
2011-08-17 06:40:14 51°16.212 2°54.296 5.3 2.8 349 11
2011-08-17 06:40:19 51°16.216 2°54.295 6.7 2.7 349 11
2011-08-17 06:40:25 51°16.22 2°54.293 8.1 2.6 348 11.1
2011-08-17 06:40:30 51°16.224 2°54.292 8.7 2.6 350 11
2011-08-17 06:40:34 51°16.226 2°54.291 8.5 2.5 348 10.9
2011-08-17 06:40:40 51°16.23 2°54.29 8.1 2.4 347 11
2011-08-17 06:40:45 51°16.233 2°54.288 7.8 2.2 347 11.1
2011-08-17 06:40:50 51°16.236 2°54.287 7.5 2.1 344 11.2
2011-08-17 06:40:54 51°16.238 2°54.286 7.7 1.8 344 11
2011-08-17 06:41:00 51°16.24 2°54.284 9.6 1.5 341 11
2011-08-17 06:41:05 51°16.242 2°54.283 12 1.3 339 11
2011-08-17 06:41:10 51°16.243 2°54.282 14.6 1.2 334 11
2011-08-17 06:41:14 51°16.244 2°54.282 16.9 1 340 10.9
2011-08-17 06:41:20 51°16.246 2°54.281 19.3 1 338 11.1
2011-08-17 06:41:25 51°16.247 2°54.28 21.3 1 340 11.1
2011-08-17 06:41:30 51°16.248 2°54.279 22.9 1 336 11
2011-08-17 06:41:35 51°16.249 2°54.279 24 0.9 338 11
2011-08-17 06:41:40 51°16.251 2°54.278 24.8 1 340 11.1
2011-08-17 06:41:45 51°16.252 2°54.278 25.3 0.9 343 11.1
2011-08-17 06:41:50 51°16.253 2°54.277 25.5 0.9 339 11.1
2011-08-17 06:41:54 51°16.254 2°54.277 25.7 0.8 342 10.9
2011-08-17 06:42:00 51°16.255 2°54.278 25.6 0.9 338 11
2011-08-17 06:42:05 51°16.256 2°54.277 25.5 0.8 339 11
2011-08-17 06:42:10 51°16.257 2°54.276 25.5 0.8 336 11
2011-08-17 06:42:14 51°16.258 2°54.275 25.2 0.8 335 11
2011-08-17 06:42:20 51°16.259 2°54.274 24.9 0.8 336 11.1
2011-08-17 06:42:25 51°16.26 2°54.273 24.7 0.7 336 11.1
2011-08-17 06:42:30 51°16.261 2°54.272 24.3 0.8 332 11.1
2011-08-17 06:42:34 51°16.261 2°54.272 24 0.7 331 11
2011-08-17 06:42:40 51°16.263 2°54.271 23.6 0.7 332 11
2011-08-17 06:42:45 51°16.263 2°54.27 23 0.8 326 11.1
2011-08-17 06:42:50 51°16.264 2°54.269 22.4 0.8 327 11.1
2011-08-17 06:42:54 51°16.265 2°54.268 21.9 0.8 327 11.1
2011-08-17 06:43:00 51°16.266 2°54.267 21.3 0.8 326 11.1
2011-08-17 06:43:05 51°16.267 2°54.266 20.9 0.7 326 11
2011-08-17 06:43:10 51°16.268 2°54.265 20.5 0.7 324 11.1
2011-08-17 06:43:14 51°16.268 2°54.264 20.1 0.7 321 11.1
2011-08-17 06:43:20 51°16.269 2°54.263 19.7 0.7 323 11
2011-08-17 06:43:25 51°16.27 2°54.262 19 0.7 318 11
2011-08-17 06:43:30 51°16.271 2°54.261 18.5 0.7 317 11.1
2011-08-17 06:43:35 51°16.272 2°54.26 17.8 0.7 321 11.1
2011-08-17 06:43:40 51°16.272 2°54.259 17.4 0.7 318 11.1
2011-08-17 06:43:45 51°16.273 2°54.258 16.8 0.7 309 10.9
2011-08-17 06:43:50 51°16.274 2°54.257 16.3 0.7 312 11.1
2011-08-17 06:43:54 51°16.274 2°54.256 15.7 0.7 311 11.2
2011-08-17 06:44:00 51°16.275 2°54.254 15.1 0.7 313 11.2
2011-08-17 06:44:05 51°16.276 2°54.253 14.6 0.7 315 11
2011-08-17 06:44:10 51°16.276 2°54.252 14.5 0.7 313 11
2011-08-17 06:44:14 51°16.277 2°54.251 14 0.7 307 10.9
2011-08-17 06:44:20 51°16.277 2°54.25 13.6 0.7 310 11
2011-08-17 06:44:25 51°16.278 2°54.249 13.2 0.7 309 11.1
2011-08-17 06:44:30 51°16.278 2°54.247 12.7 0.7 312 11.2
2011-08-17 06:44:34 51°16.279 2°54.246 11.9 0.7 306 11.2
2011-08-17 06:44:40 51°16.279 2°54.244 11.4 0.7 304 11
2011-08-17 06:44:45 51°16.28 2°54.243 10.7 0.6 305 10.9
2011-08-17 06:44:50 51°16.28 2°54.241 10 0.7 302 11.1
2011-08-17 06:44:54 51°16.281 2°54.24 9.5 0.7 304 11.2
2011-08-17 06:44:59 51°16.281 2°54.239 8.5 0.7 304 11.1
2011-08-17 06:45:05 51°16.282 2°54.238 7.8 0.7 297 10.9
2011-08-17 06:45:10 51°16.282 2°54.236 7.3 0.7 295 11.1
2011-08-17 06:45:14 51°16.283 2°54.235 6.9 0.8 294 11.2
2011-08-17 06:45:20 51°16.283 2°54.233 6.5 0.7 296 11.1
2011-08-17 06:45:25 51°16.284 2°54.232 5.8 0.7 297 10.9
2011-08-17 06:45:30 51°16.284 2°54.231 5.4 0.7 294 11
2011-08-17 06:45:34 51°16.284 2°54.23 5.1 0.7 296 11.1
2011-08-17 06:45:40 51°16.285 2°54.228 4.9 0.7 296 11.2
2011-08-17 06:45:45 51°16.286 2°54.227 4.4 0.7 295 11.1
2011-08-17 06:45:50 51°16.286 2°54.225 3.8 0.7 293 11.1
2011-08-17 06:45:54 51°16.286 2°54.224 3 0.7 293 11.2
2011-08-17 06:46:00 51°16.287 2°54.222 2.6 0.7 295 11
2011-08-17 06:46:05 51°16.287 2°54.221 2.1 0.7 291 11.1
2011-08-17 06:46:10 51°16.287 2°54.219 1.5 0.7 293 11.2
2011-08-17 06:46:15 51°16.288 2°54.218 0.9 0.7 292 11.1
2011-08-17 06:46:20 51°16.288 2°54.216 0.6 0.7 291 11
2011-08-17 06:46:25 51°16.288 2°54.215 0.2 0.7 288 10.9
2011-08-17 06:46:30 51°16.289 2°54.213 359.8 0.7 288 11
2011-08-17 06:46:34 51°16.289 2°54.212 359.1 0.7 284 11.1
2011-08-17 06:46:40 51°16.289 2°54.21 358.6 0.7 284 11.2
2011-08-17 06:46:45 51°16.289 2°54.209 357.9 0.7 287 11.2
2011-08-17 06:46:50 51°16.29 2°54.207 357.7 0.7 286 11.1
2011-08-17 06:46:54 51°16.29 2°54.206 356.7 0.7 286 11.2
2011-08-17 06:47:00 51°16.29 2°54.204 356.2 0.7 288 11.1
2011-08-17 06:47:05 51°16.291 2°54.202 355.6 0.7 288 11
2011-08-17 06:47:10 51°16.291 2°54.201 355 0.8 283 11
2011-08-17 06:47:14 51°16.291 2°54.2 354.1 0.7 286 11
2011-08-17 06:47:20 51°16.291 2°54.198 353.6 0.7 285 11
2011-08-17 06:47:25 51°16.292 2°54.196 352.7 0.7 285 10.9
2011-08-17 06:47:30 51°16.292 2°54.195 352.1 0.7 285 11.1
2011-08-17 06:47:34 51°16.292 2°54.194 351.6 0.7 284 11
2011-08-17 06:47:40 51°16.292 2°54.191 351.4 0.7 280 11
2011-08-17 06:47:45 51°16.292 2°54.19 351 0.7 282 11.1
2011-08-17 06:47:50 51°16.293 2°54.188 350.7 0.7 282 11.2
2011-08-17 06:47:55 51°16.293 2°54.186 349.9 0.7 279 11
2011-08-17 06:48:00 51°16.293 2°54.185 349.6 0.7 279 10.9
2011-08-17 06:48:05 51°16.293 2°54.183 349.1 0.7 278 11
2011-08-17 06:48:10 51°16.293 2°54.182 348.6 0.7 280 11
2011-08-17 06:48:14 51°16.293 2°54.18 348 0.7 278 11
2011-08-17 06:48:20 51°16.293 2°54.179 347.5 0.7 280 11
2011-08-17 06:48:25 51°16.294 2°54.177 347 0.7 281 11.1
2011-08-17 06:48:30 51°16.294 2°54.175 346.5 0.7 279 11.1
2011-08-17 06:48:34 51°16.294 2°54.174 346 0.7 280 11
2011-08-17 06:48:40 51°16.294 2°54.172 345.8 0.9 293 11.1
2011-08-17 06:48:45 51°16.295 2°54.17 345.6 1.1 310 11.1
2011-08-17 06:48:50 51°16.297 2°54.168 345.6 1.5 317 11.1
2011-08-17 06:48:54 51°16.299 2°54.166 347.7 1.7 324 11
2011-08-17 06:49:00 51°16.301 2°54.164 350.5 2 331 11
2011-08-17 06:49:05 51°16.304 2°54.162 354.8 2.1 337 11
2011-08-17 06:49:10 51°16.307 2°54.161 359.8 2.3 344 11.1
2011-08-17 06:49:14 51°16.31 2°54.16 5.2 2.4 350 11.1
2011-08-17 06:49:20 51°16.314 2°54.16 10.5 2.4 357 10.9
2011-08-17 06:49:25 51°16.317 2°54.16 16.3 2.4 4 11
2011-08-17 06:49:30 51°16.321 2°54.161 22.5 2.4 11 11
2011-08-17 06:49:34 51°16.323 2°54.163 29.8 2.4 18 11.2
2011-08-17 06:49:39 51°16.326 2°54.165 34.9 2.5 27 11
2011-08-17 06:49:45 51°16.33 2°54.169 42.3 2.5 36 11
2011-08-17 06:49:50 51°16.332 2°54.173 47.4 2.5 45 11
2011-08-17 06:49:55 51°16.334 2°54.177 55.2 2.5 53 11.1
2011-08-17 06:50:00 51°16.336 2°54.182 60.2 2.5 62 11.1
2011-08-17 06:50:05 51°16.338 2°54.188 66.2 2.5 70 11.1
2011-08-17 06:50:10 51°16.339 2°54.193 72.6 2.6 79 11
2011-08-17 06:50:14 51°16.339 2°54.198 80.1 2.6 86 11
2011-08-17 06:50:20 51°16.339 2°54.205 85 2.7 95 11.1
2011-08-17 06:50:25 51°16.338 2°54.211 91.4 2.7 103 11
2011-08-17 06:50:30 51°16.336 2°54.216 97.5 2.8 112 11
2011-08-17 06:50:35 51°16.335 2°54.222 103.9 2.9 120 11
2011-08-17 06:50:40 51°16.332 2°54.227 110.2 2.9 127 11
2011-08-17 06:50:45 51°16.329 2°54.232 116.3 3 134 11
2011-08-17 06:50:50 51°16.326 2°54.236 122.5 3.1 141 11
2011-08-17 06:50:54 51°16.322 2°54.24 128.7 3.2 145 11
2011-08-17 06:51:00 51°16.317 2°54.244 134.8 3.4 152 11.1
2011-08-17 06:51:05 51°16.312 2°54.247 140.1 3.6 157 11
2011-08-17 06:51:10 51°16.307 2°54.249 144.6 3.6 161 10.9
2011-08-17 06:51:14 51°16.304 2°54.251 149.2 3.5 166 11
2011-08-17 06:51:20 51°16.298 2°54.253 153.2 3.4 168 11
2011-08-17 06:51:25 51°16.293 2°54.254 155.5 3.3 170 11
2011-08-17 06:51:30 51°16.289 2°54.255 156.6 3.2 170 10.9
2011-08-17 06:51:34 51°16.286 2°54.256 157 3.1 170 10.8
2011-08-17 06:51:39 51°16.282 2°54.257 157.1 2.9 171 10.9
2011-08-17 06:51:45 51°16.277 2°54.258 156.9 2.8 172 11
2011-08-17 06:51:50 51°16.273 2°54.259 156 2.7 172 11
2011-08-17 06:51:54 51°16.271 2°54.26 154.8 2.6 172 11
2011-08-17 06:52:00 51°16.266 2°54.261 153.6 2.5 170 11
2011-08-17 06:52:05 51°16.263 2°54.262 152.3 2.4 171 11
2011-08-17 06:52:10 51°16.26 2°54.263 151 2.3 170 10.9
2011-08-17 06:52:14 51°16.258 2°54.263 149.1 2.1 172 10.9
2011-08-17 06:52:20 51°16.255 2°54.264 148.1 1.8 173 10.9
2011-08-17 06:52:25 51°16.252 2°54.264 148.1 1.6 181 10.9
2011-08-17 06:52:30 51°16.251 2°54.263 149.1 1.3 188 10.9
2011-08-17 06:52:34 51°16.25 2°54.263 150.5 1.1 197 10.8
2011-08-17 06:52:40 51°16.248 2°54.262 151.1 1 197 10.9
2011-08-17 06:52:45 51°16.247 2°54.261 151.6 1 200 10.9
2011-08-17 06:52:50 51°16.246 2°54.261 152 1 197 11
2011-08-17 06:52:55 51°16.245 2°54.26 152.5 1 198 10.8
2011-08-17 06:53:00 51°16.243 2°54.259 152.7 1 201 10.8
2011-08-17 06:53:05 51°16.242 2°54.258 152.9 0.8 199 10.9
2011-08-17 06:53:10 51°16.241 2°54.258 153 0.9 200 10.9
2011-08-17 06:53:14 51°16.24 2°54.257 153.1 0.9 200 10.9
2011-08-17 06:53:20 51°16.239 2°54.256 153 0.9 203 10.9
2011-08-17 06:53:25 51°16.237 2°54.255 153 0.9 202 10.8
2011-08-17 06:53:30 51°16.236 2°54.255 153.2 0.9 204 10.8
2011-08-17 06:53:34 51°16.236 2°54.254 153.3 0.8 202 10.7
2011-08-17 06:53:40 51°16.234 2°54.253 153.5 0.8 204 10.8
2011-08-17 06:53:45 51°16.233 2°54.252 153.7 0.8 204 10.9
2011-08-17 06:53:50 51°16.232 2°54.252 154 0.9 208 10.8
2011-08-17 06:53:54 51°16.231 2°54.251 154.4 0.8 207 10.8
2011-08-17 06:54:00 51°16.23 2°54.25 154.7 0.9 208 10.8
2011-08-17 06:54:05 51°16.229 2°54.249 155.2 0.8 207 10.9
2011-08-17 06:54:10 51°16.228 2°54.248 155.5 0.8 211 10.9
2011-08-17 06:54:14 51°16.227 2°54.247 155.7 0.8 210 10.9
2011-08-17 06:54:20 51°16.226 2°54.246 156.1 0.9 212 10.8
2011-08-17 06:54:25 51°16.225 2°54.245 156.2 0.8 211 10.9
2011-08-17 06:54:30 51°16.224 2°54.244 156.4 0.8 214 10.9
2011-08-17 06:54:34 51°16.224 2°54.243 156.6 0.8 214 10.8
2011-08-17 06:54:40 51°16.223 2°54.242 156.8 0.8 215 10.8
2011-08-17 06:54:45 51°16.221 2°54.241 156.9 0.8 213 10.8
2011-08-17 06:54:50 51°16.221 2°54.24 157 0.8 215 10.7
2011-08-17 06:54:55 51°16.22 2°54.239 157.3 0.8 217 10.8
2011-08-17 06:55:00 51°16.219 2°54.238 157.4 0.8 217 10.8
2011-08-17 06:55:05 51°16.218 2°54.237 157.5 0.8 219 10.8
2011-08-17 06:55:10 51°16.217 2°54.236 157.6 0.8 218 10.9
2011-08-17 06:55:15 51°16.216 2°54.235 157.6 0.8 217 10.8
2011-08-17 06:55:20 51°16.216 2°54.234 157.9 0.7 218 10.8
2011-08-17 06:55:25 51°16.215 2°54.233 158.1 0.8 221 10.9
2011-08-17 06:55:30 51°16.214 2°54.232 158.2 0.7 219 10.8
2011-08-17 06:55:34 51°16.213 2°54.231 158.6 0.8 218 10.8
2011-08-17 06:55:40 51°16.212 2°54.229 158.6 0.8 220 10.8
2011-08-17 06:55:45 51°16.212 2°54.228 158.9 0.8 224 10.8
2011-08-17 06:55:50 51°16.211 2°54.227 158.9 0.7 220 10.8
2011-08-17 06:55:54 51°16.21 2°54.226 158.9 0.8 221 10.8
2011-08-17 06:56:00 51°16.209 2°54.225 158.9 0.7 224 10.8
2011-08-17 06:56:05 51°16.208 2°54.224 159 0.8 224 10.7
2011-08-17 06:56:10 51°16.208 2°54.222 159 0.8 224 10.8
2011-08-17 06:56:14 51°16.207 2°54.222 159 0.8 225 10.8
2011-08-17 06:56:20 51°16.206 2°54.22 159 0.7 227 10.7
2011-08-17 06:56:25 51°16.206 2°54.219 159 0.8 227 10.8
2011-08-17 06:56:30 51°16.205 2°54.218 159 0.7 224 10.8
2011-08-17 06:56:34 51°16.204 2°54.217 159.2 0.7 228 10.8
2011-08-17 06:56:40 51°16.203 2°54.215 159.4 0.7 226 10.8
2011-08-17 06:56:45 51°16.203 2°54.214 159.6 0.8 227 10.8
2011-08-17 06:56:50 51°16.202 2°54.213 159.8 0.8 228 10.8
2011-08-17 06:56:55 51°16.201 2°54.211 160 0.8 231 10.7
2011-08-17 06:57:00 51°16.2 2°54.21 160.1 0.7 227 10.8
2011-08-17 06:57:05 51°16.2 2°54.209 160.3 0.8 229 10.7
2011-08-17 06:57:10 51°16.199 2°54.208 160.5 0.7 229 10.8
2011-08-17 06:57:14 51°16.199 2°54.207 160.7 0.7 233 10.8
2011-08-17 06:57:20 51°16.198 2°54.205 160.9 0.7 229 10.8
2011-08-17 06:57:25 51°16.197 2°54.204 161.1 0.8 228 10.8
2011-08-17 06:57:30 51°16.196 2°54.203 161.2 0.8 231 10.8
2011-08-17 06:57:34 51°16.196 2°54.201 161.5 0.8 234 10.7
2011-08-17 06:57:40 51°16.195 2°54.2 161.8 0.7 234 10.7
2011-08-17 06:57:45 51°16.194 2°54.199 162 0.7 233 10.7
2011-08-17 06:57:50 51°16.194 2°54.197 162.2 0.8 231 10.7
2011-08-17 06:57:55 51°16.193 2°54.196 162.5 0.8 230 10.7
2011-08-17 06:58:00 51°16.192 2°54.195 162.8 0.7 230 10.7
2011-08-17 06:58:05 51°16.192 2°54.194 162.9 0.7 233 10.8
2011-08-17 06:58:10 51°16.191 2°54.192 163.1 0.7 230 10.7
2011-08-17 06:58:14 51°16.191 2°54.191 163.3 0.8 233 10.7
2011-08-17 06:58:20 51°16.19 2°54.19 163.3 0.8 231 10.7
2011-08-17 06:58:25 51°16.189 2°54.188 163.4 0.8 229 10.6
2011-08-17 06:58:30 51°16.189 2°54.187 163.6 0.7 232 10.7
2011-08-17 06:58:34 51°16.188 2°54.186 163.6 0.8 233 10.8
2011-08-17 06:58:39 51°16.188 2°54.185 163.7 0.7 235 10.7
2011-08-17 06:58:45 51°16.187 2°54.183 163.7 0.8 235 10.7
2011-08-17 06:58:50 51°16.186 2°54.182 163.7 0.7 231 10.8
2011-08-17 06:58:55 51°16.186 2°54.18 163.9 0.8 233 10.7
2011-08-17 06:59:00 51°16.185 2°54.179 164 0.7 231 10.8
2011-08-17 06:59:05 51°16.185 2°54.178 164.1 0.8 237 10.7
2011-08-17 06:59:10 51°16.184 2°54.176 164.4 0.8 235 10.6
2011-08-17 06:59:14 51°16.183 2°54.175 164.5 0.8 234 10.7
2011-08-17 06:59:20 51°16.183 2°54.174 164.7 0.7 233 10.8
2011-08-17 06:59:25 51°16.182 2°54.172 164.8 0.8 237 10.9
2011-08-17 06:59:30 51°16.182 2°54.171 165 0.8 237 10.8
2011-08-17 06:59:34 51°16.181 2°54.17 165.4 0.7 234 10.8
2011-08-17 06:59:40 51°16.18 2°54.168 165.7 0.8 234 10.8
2011-08-17 06:59:45 51°16.18 2°54.167 165.9 0.7 236 10.7
2011-08-17 06:59:50 51°16.179 2°54.165 166 0.7 236 10.7
2011-08-17 06:59:55 51°16.179 2°54.164 166.1 0.7 235 10.7
2011-08-17 07:00:00 51°16.178 2°54.163 166.4 0.7 236 10.7
2011-08-17 07:00:05 51°16.177 2°54.162 166.3 0.7 232 10.7
2011-08-17 07:00:10 51°16.177 2°54.16 166.3 0.7 236 10.8
2011-08-17 07:00:14 51°16.176 2°54.159 166.3 0.7 238 10.7
2011-08-17 07:00:20 51°16.176 2°54.157 166.3 0.8 237 10.7
2011-08-17 07:00:25 51°16.175 2°54.156 166.4 0.7 238 10.7
2011-08-17 07:00:30 51°16.174 2°54.155 166.7 0.8 237 10.8
2011-08-17 07:00:34 51°16.174 2°54.154 166.9 0.7 237 10.6
2011-08-17 07:00:39 51°16.173 2°54.152 167.2 0.8 238 10.7
2011-08-17 07:00:45 51°16.173 2°54.151 167.5 0.8 235 10.7
2011-08-17 07:00:50 51°16.172 2°54.149 167.8 0.8 237 10.7
2011-08-17 07:00:54 51°16.172 2°54.148 168 0.8 239 10.7
2011-08-17 07:01:00 51°16.171 2°54.147 168.3 0.8 241 10.7
2011-08-17 07:01:05 51°16.17 2°54.145 168.6 0.8 236 10.8
2011-08-17 07:01:10 51°16.17 2°54.144 169.2 0.8 235 10.7
2011-08-17 07:01:14 51°16.169 2°54.143 169.7 0.8 232 10.7
2011-08-17 07:01:20 51°16.168 2°54.141 170.2 0.8 235 10.7
2011-08-17 07:01:25 51°16.168 2°54.14 170.7 0.7 238 10.7
2011-08-17 07:01:30 51°16.167 2°54.138 171.2 0.8 237 10.7
2011-08-17 07:01:34 51°16.167 2°54.137 171.7 0.7 235 10.7
2011-08-17 07:01:40 51°16.166 2°54.135 172.2 0.8 240 10.7
2011-08-17 07:01:45 51°16.165 2°54.134 172.4 0.8 235 10.9
2011-08-17 07:01:50 51°16.165 2°54.133 173 0.7 239 10.8
2011-08-17 07:01:55 51°16.164 2°54.132 173.3 0.8 236 10.6
2011-08-17 07:02:00 51°16.163 2°54.13 173.6 0.8 234 10.7
2011-08-17 07:02:05 51°16.163 2°54.129 173.8 0.8 237 10.6
2011-08-17 07:02:10 51°16.162 2°54.127 173.9 0.8 237 10.6
2011-08-17 07:02:14 51°16.162 2°54.126 174 0.8 237 10.7
2011-08-17 07:02:20 51°16.161 2°54.124 174.2 0.7 237 10.7
2011-08-17 07:02:25 51°16.161 2°54.123 174.3 0.7 236 10.8
2011-08-17 07:02:30 51°16.16 2°54.122 174.3 0.7 238 10.7
2011-08-17 07:02:34 51°16.159 2°54.121 174.2 0.7 235 10.7
2011-08-17 07:02:40 51°16.159 2°54.119 174.1 0.8 235 10.7
2011-08-17 07:02:45 51°16.158 2°54.117 174.3 0.7 238 10.7
2011-08-17 07:02:50 51°16.158 2°54.116 174.2 0.7 239 10.8
2011-08-17 07:02:54 51°16.157 2°54.115 174.3 0.7 238 10.8
2011-08-17 07:02:59 51°16.157 2°54.114 174.3 0.8 239 10.8
2011-08-17 07:03:05 51°16.156 2°54.112 174.3 0.8 233 10.8
2011-08-17 07:03:10 51°16.155 2°54.111 174.3 0.8 237 10.6
2011-08-17 07:03:14 51°16.155 2°54.109 174.3 0.7 237 10.6
2011-08-17 07:03:20 51°16.154 2°54.108 174.3 0.7 238 10.6
2011-08-17 07:03:25 51°16.154 2°54.107 174.1 0.6 238 10.8
2011-08-17 07:03:30 51°16.153 2°54.105 174.1 0.7 241 10.8
2011-08-17 07:03:34 51°16.153 2°54.104 173.9 0.8 238 10.7
2011-08-17 07:03:40 51°16.152 2°54.102 174.1 0.8 233 10.7
2011-08-17 07:03:45 51°16.151 2°54.101 174.3 0.8 234 10.6
2011-08-17 07:03:50 51°16.151 2°54.099 174.5 0.8 239 10.8
2011-08-17 07:03:55 51°16.15 2°54.098 174.5 0.7 236 10.7
2011-08-17 07:04:00 51°16.15 2°54.097 174.5 0.7 237 10.7
2011-08-17 07:04:05 51°16.149 2°54.095 174.6 0.7 238 10.8
2011-08-17 07:04:10 51°16.148 2°54.093 174.6 0.8 234 10.6
2011-08-17 07:04:14 51°16.148 2°54.092 174.5 0.8 235 10.6
2011-08-17 07:04:20 51°16.147 2°54.09 174.5 0.8 239 10.6
2011-08-17 07:04:25 51°16.147 2°54.089 174.5 0.8 239 10.6
2011-08-17 07:04:30 51°16.146 2°54.088 174.3 0.8 239 10.7
2011-08-17 07:04:34 51°16.146 2°54.087 174.3 0.7 241 10.8
2011-08-17 07:04:40 51°16.145 2°54.085 174.1 0.8 242 10.8
2011-08-17 07:04:45 51°16.145 2°54.083 173.9 0.7 238 10.7
2011-08-17 07:04:50 51°16.144 2°54.082 173.6 0.8 236 10.6
2011-08-17 07:04:54 51°16.143 2°54.081 173.5 0.8 232 10.6
2011-08-17 07:05:00 51°16.143 2°54.079 173.1 0.7 239 10.6
2011-08-17 07:05:05 51°16.143 2°54.078 172.8 0.7 241 10.6
2011-08-17 07:05:10 51°16.142 2°54.077 172.6 0.7 243 10.7
2011-08-17 07:05:14 51°16.142 2°54.076 172.1 0.7 238 10.7
2011-08-17 07:05:20 51°16.141 2°54.074 171.9 0.7 239 10.7
2011-08-17 07:05:25 51°16.14 2°54.073 171.6 0.7 238 10.8
2011-08-17 07:05:30 51°16.14 2°54.072 171.4 0.8 234 10.7
2011-08-17 07:05:35 51°16.139 2°54.07 171.2 0.7 232 10.6
2011-08-17 07:05:39 51°16.139 2°54.069 170.9 0.7 235 10.7
2011-08-17 07:05:45 51°16.138 2°54.067 170.7 0.7 239 10.6
2011-08-17 07:05:50 51°16.137 2°54.066 170.5 0.7 236 10.7
2011-08-17 07:05:55 51°16.137 2°54.065 169.9 0.7 233 10.7
2011-08-17 07:06:00 51°16.136 2°54.064 169.8 0.8 235 10.7
2011-08-17 07:06:05 51°16.136 2°54.062 169.4 0.7 238 10.7
2011-08-17 07:06:10 51°16.135 2°54.061 169.2 0.7 239 10.7
2011-08-17 07:06:14 51°16.135 2°54.06 169.1 0.8 238 10.6
2011-08-17 07:06:20 51°16.134 2°54.058 169.1 0.7 242 10.7
2011-08-17 07:06:25 51°16.133 2°54.057 168.7 0.8 240 10.7
2011-08-17 07:06:30 51°16.133 2°54.056 168.5 0.7 236 10.7
2011-08-17 07:06:34 51°16.132 2°54.054 168.4 0.8 237 10.6
2011-08-17 07:06:40 51°16.132 2°54.053 168.1 0.7 238 10.6
2011-08-17 07:06:45 51°16.131 2°54.051 167.7 0.8 241 10.6
2011-08-17 07:06:50 51°16.131 2°54.05 167.5 0.7 240 10.6
2011-08-17 07:06:54 51°16.13 2°54.049 167.3 0.7 239 10.6
2011-08-17 07:07:00 51°16.13 2°54.047 167 0.7 237 10.7
2011-08-17 07:07:05 51°16.129 2°54.046 166.8 0.7 236 10.7
2011-08-17 07:07:10 51°16.128 2°54.045 166.4 0.7 239 10.6
2011-08-17 07:07:14 51°16.128 2°54.043 166.1 0.7 239 10.6
2011-08-17 07:07:20 51°16.127 2°54.042 165.7 0.8 237 10.8
2011-08-17 07:07:25 51°16.127 2°54.04 165.6 0.7 238 10.7
2011-08-17 07:07:30 51°16.126 2°54.039 165.4 0.7 239 10.7
2011-08-17 07:07:35 51°16.126 2°54.038 165.1 0.7 238 10.7
2011-08-17 07:07:39 51°16.125 2°54.037 164.8 0.7 241 10.6
2011-08-17 07:07:45 51°16.125 2°54.035 164.5 0.7 237 10.6
2011-08-17 07:07:50 51°16.124 2°54.034 164.4 0.7 240 10.6
2011-08-17 07:07:54 51°16.124 2°54.033 163.9 0.7 240 10.6
2011-08-17 07:08:00 51°16.123 2°54.031 163.8 0.7 241 10.6
2011-08-17 07:08:05 51°16.123 2°54.03 163.4 0.8 239 10.6
2011-08-17 07:08:10 51°16.122 2°54.028 163.4 0.7 236 10.6
2011-08-17 07:08:14 51°16.122 2°54.027 163.4 0.7 237 10.7
2011-08-17 07:08:20 51°16.121 2°54.026 163.4 0.7 235 10.7
2011-08-17 07:08:25 51°16.12 2°54.024 163.4 0.8 235 10.7
2011-08-17 07:08:30 51°16.12 2°54.023 163.4 0.8 236 10.6
2011-08-17 07:08:34 51°16.119 2°54.022 163.4 0.8 237 10.6
2011-08-17 07:08:40 51°16.119 2°54.02 163.4 0.7 235 10.5
2011-08-17 07:08:45 51°16.118 2°54.019 163.5 0.7 236 10.6
2011-08-17 07:08:50 51°16.118 2°54.018 163.4 0.6 236 10.8
2011-08-17 07:08:54 51°16.117 2°54.016 163.3 0.7 240 10.7
2011-08-17 07:09:00 51°16.117 2°54.015 163.2 0.7 241 10.7
2011-08-17 07:09:05 51°16.116 2°54.013 163.3 0.8 236 10.6
2011-08-17 07:09:10 51°16.115 2°54.012 163.2 0.7 238 10.6
2011-08-17 07:09:14 51°16.115 2°54.011 163.2 0.8 239 10.7
2011-08-17 07:09:20 51°16.114 2°54.009 163.1 0.7 240 10.7
2011-08-17 07:09:25 51°16.114 2°54.008 163.2 0.7 235 10.7
2011-08-17 07:09:30 51°16.113 2°54.006 163.2 0.7 236 10.8
2011-08-17 07:09:34 51°16.113 2°54.005 163.2 0.7 241 10.5
2011-08-17 07:09:39 51°16.112 2°54.004 163.3 0.8 235 10.6
2011-08-17 07:09:45 51°16.112 2°54.002 163.3 0.7 238 10.6
2011-08-17 07:09:50 51°16.111 2°54.001 163.1 0.7 242 10.8
2011-08-17 07:09:54 51°16.111 2°54 162.9 0.7 238 10.7
2011-08-17 07:09:59 51°16.11 2°53.998 162.8 0.7 235 10.6
2011-08-17 07:10:05 51°16.109 2°53.997 162.8 0.7 236 10.7
2011-08-17 07:10:10 51°16.109 2°53.995 162.8 0.8 237 10.7
2011-08-17 07:10:14 51°16.108 2°53.994 162.8 0.8 236 10.7
2011-08-17 07:10:20 51°16.107 2°53.993 162.8 0.8 235 10.6
2011-08-17 07:10:25 51°16.107 2°53.991 162.8 0.8 237 10.6
2011-08-17 07:10:30 51°16.106 2°53.99 162.9 0.8 237 10.6
2011-08-17 07:10:35 51°16.106 2°53.988 163 0.8 236 10.6
2011-08-17 07:10:40 51°16.105 2°53.987 162.9 0.7 238 10.6
2011-08-17 07:10:45 51°16.105 2°53.985 162.9 0.8 236 10.6
2011-08-17 07:10:50 51°16.104 2°53.984 163 0.8 236 10.6
2011-08-17 07:10:54 51°16.104 2°53.983 163 0.7 237 10.6
2011-08-17 07:11:00 51°16.103 2°53.981 163.1 0.8 240 10.5
2011-08-17 07:11:05 51°16.102 2°53.98 163.1 0.7 236 10.6
2011-08-17 07:11:10 51°16.102 2°53.979 163.1 0.8 237 10.6
2011-08-17 07:11:14 51°16.101 2°53.978 163.1 0.7 239 10.6
2011-08-17 07:11:20 51°16.1 2°53.976 163.1 0.8 239 10.5
2011-08-17 07:11:25 51°16.1 2°53.974 163.1 0.7 238 10.6
2011-08-17 07:11:30 51°16.099 2°53.973 163.1 0.8 237 10.7
2011-08-17 07:11:34 51°16.099 2°53.972 162.9 0.8 236 10.6
2011-08-17 07:11:40 51°16.098 2°53.97 162.9 0.8 235 10.6
2011-08-17 07:11:45 51°16.097 2°53.969 162.7 0.8 235 10.6
2011-08-17 07:11:50 51°16.097 2°53.967 162.7 0.8 237 10.7
2011-08-17 07:11:54 51°16.096 2°53.966 162.6 0.8 238 10.6
2011-08-17 07:12:00 51°16.096 2°53.964 162.4 0.7 241 10.6
2011-08-17 07:12:05 51°16.095 2°53.963 162.3 0.8 240 10.7
2011-08-17 07:12:10 51°16.095 2°53.961 162 0.8 240 10.6
2011-08-17 07:12:14 51°16.094 2°53.96 161.9 0.8 227 10.6
2011-08-17 07:12:20 51°16.093 2°53.959 161.8 0.9 220 10.6
2011-08-17 07:12:25 51°16.092 2°53.958 161.4 1 212 10.6
2011-08-17 07:12:30 51°16.09 2°53.957 160.3 1.1 204 10.6
2011-08-17 07:12:35 51°16.089 2°53.957 157.9 1.2 194 10.5
2011-08-17 07:12:40 51°16.087 2°53.956 154.9 1.3 189 10.6
2011-08-17 07:12:45 51°16.085 2°53.956 151.4 1.4 180 10.7
2011-08-17 07:12:50 51°16.083 2°53.957 147.6 1.7 173 10.6
2011-08-17 07:12:55 51°16.08 2°53.958 143.1 1.9 163 10.5
2011-08-17 07:13:00 51°16.077 2°53.96 137.3 2.1 154 10.6
2011-08-17 07:13:05 51°16.075 2°53.963 130.7 2.3 145 10.6
2011-08-17 07:13:10 51°16.073 2°53.967 124.1 2.4 133 10.6
2011-08-17 07:13:15 51°16.071 2°53.971 117 2.5 127 10.5
2011-08-17 07:13:20 51°16.069 2°53.976 110 2.6 116 10.5
2011-08-17 07:13:25 51°16.069 2°53.982 102.4 2.6 107 10.6
2011-08-17 07:13:30 51°16.068 2°53.988 94.9 2.6 97 10.6
2011-08-17 07:13:35 51°16.069 2°53.994 87.2 2.7 85 10.6
2011-08-17 07:13:40 51°16.07 2°54 79.9 2.7 76 10.6
2011-08-17 07:13:45 51°16.072 2°54.005 72.5 2.8 64 10.6
2011-08-17 07:13:50 51°16.074 2°54.01 64.8 2.9 54 10.6
2011-08-17 07:13:54 51°16.077 2°54.014 57.4 3 45 10.5
2011-08-17 07:14:00 51°16.081 2°54.019 49.8 3.1 34 10.6
2011-08-17 07:14:05 51°16.085 2°54.022 42.4 3.3 24 10.6
2011-08-17 07:14:10 51°16.089 2°54.024 34.9 3.4 16 10.6
2011-08-17 07:14:14 51°16.093 2°54.024 27.6 3.6 6 10.5
2011-08-17 07:14:20 51°16.099 2°54.024 20 3.7 358 10.6
2011-08-17 07:14:25 51°16.105 2°54.023 12.4 3.9 348 10.5
2011-08-17 07:14:30 51°16.11 2°54.02 5 4.1 343 10.5
2011-08-17 07:14:34 51°16.115 2°54.017 357.4 4.4 336 10.5
2011-08-17 07:14:40 51°16.121 2°54.011 350.4 4.8 332 10.7
2011-08-17 07:14:45 51°16.128 2°54.005 345.4 5.7 331 10.5
2011-08-17 07:14:50 51°16.136 2°53.997 341.1 6.5 327 10.5
2011-08-17 07:14:54 51°16.143 2°53.991 339 7.2 330 10.6
2011-08-17 07:15:00 51°16.154 2°53.979 337.6 8.1 327 10.7
2011-08-17 07:15:05 51°16.164 2°53.969 336.4 8.8 328 10.6
2011-08-17 07:15:10 51°16.175 2°53.958 336 9.5 327 10.6
2011-08-17 07:15:15 51°16.187 2°53.946 335.4 10.1 327 10.6
2011-08-17 07:15:20 51°16.2 2°53.933 335.1 10.6 327 10.5
2011-08-17 07:15:25 51°16.213 2°53.92 334.7 11 328 10.6
2011-08-17 07:15:30 51°16.226 2°53.907 334.5 11.4 327 10.7
2011-08-17 07:15:34 51°16.237 2°53.895 333.6 11.7 326 10.6
2011-08-17 07:15:40 51°16.253 2°53.876 332.9 11.9 325 10.7
2011-08-17 07:15:45 51°16.267 2°53.861 332.3 12.1 325 10.7
2011-08-17 07:15:50 51°16.28 2°53.844 331.8 12.3 324 10.8
2011-08-17 07:15:55 51°16.294 2°53.828 331.1 12.4 324 10.8
2011-08-17 07:16:00 51°16.308 2°53.812 330.6 12.5 324 10.9
2011-08-17 07:16:05 51°16.323 2°53.796 331.2 12.6 325 10.9
2011-08-17 07:16:10 51°16.337 2°53.78 331.2 12.6 324 11
2011-08-17 07:16:14 51°16.348 2°53.766 330.5 12.6 323 10.9
2011-08-17 07:16:20 51°16.365 2°53.746 329.7 12.7 322 11
2011-08-17 07:16:25 51°16.379 2°53.729 329.3 12.7 323 11
2011-08-17 07:16:30 51°16.393 2°53.712 329.3 12.7 323 11.1
2011-08-17 07:16:35 51°16.407 2°53.695 329.3 12.7 323 11
2011-08-17 07:16:39 51°16.418 2°53.681 329.3 12.7 323 11.1
2011-08-17 07:16:45 51°16.435 2°53.661 329.5 12.7 323 11.1
2011-08-17 07:16:50 51°16.449 2°53.644 329.7 12.7 323 11
2011-08-17 07:16:54 51°16.46 2°53.63 329.7 12.7 323 11.1
2011-08-17 07:17:00 51°16.477 2°53.61 329.6 12.7 323 11.1
2011-08-17 07:17:05 51°16.491 2°53.593 329.4 12.7 323 11.2
2011-08-17 07:17:10 51°16.506 2°53.577 329.5 12.7 324 11.1
2011-08-17 07:17:14 51°16.517 2°53.564 330.1 12.7 324 11.2
2011-08-17 07:17:20 51°16.534 2°53.544 330.3 12.7 324 11.2
2011-08-17 07:17:25 51°16.548 2°53.528 330.7 12.7 324 11.1
2011-08-17 07:17:30 51°16.563 2°53.511 330.7 12.7 324 11.1
2011-08-17 07:17:34 51°16.574 2°53.498 331 12.7 325 11.1
2011-08-17 07:17:40 51°16.591 2°53.479 331.2 12.7 325 11.1
2011-08-17 07:17:45 51°16.606 2°53.463 331 12.8 325 11.1
2011-08-17 07:17:50 51°16.62 2°53.446 330.8 12.7 324 11.1
2011-08-17 07:17:55 51°16.635 2°53.43 331.1 12.7 325 10.9
2011-08-17 07:18:00 51°16.649 2°53.415 332 12.7 326 11.1
2011-08-17 07:18:05 51°16.664 2°53.398 331.6 12.7 324 10.8
2011-08-17 07:18:10 51°16.678 2°53.381 330.2 12.8 323 10.9
2011-08-17 07:18:14 51°16.689 2°53.368 329.5 12.7 323 10.8
2011-08-17 07:18:20 51°16.706 2°53.347 328.9 12.8 322 10.8
2011-08-17 07:18:25 51°16.719 2°53.329 328.3 12.8 321 10.8
2011-08-17 07:18:30 51°16.733 2°53.311 327.7 12.8 321 10.7
2011-08-17 07:18:34 51°16.744 2°53.297 326.7 12.7 320 10.7
2011-08-17 07:18:40 51°16.76 2°53.275 325.5 12.8 319 10.7
2011-08-17 07:18:45 51°16.773 2°53.256 324.9 12.7 319 10.5
2011-08-17 07:18:50 51°16.787 2°53.238 324.6 12.8 319 10.5
2011-08-17 07:18:54 51°16.797 2°53.223 324.5 12.7 319 10.3
2011-08-17 07:18:59 51°16.811 2°53.205 324.5 12.7 319 10.2
2011-08-17 07:19:05 51°16.827 2°53.183 324.6 12.7 319 9.9
2011-08-17 07:19:10 51°16.84 2°53.164 324.5 12.6 319 9.4
2011-08-17 07:19:14 51°16.85 2°53.15 324.3 12.5 320 8.7
2011-08-17 07:19:20 51°16.866 2°53.129 324.6 12.5 320 8.4
2011-08-17 07:19:25 51°16.879 2°53.111 324.8 12.3 320 8
2011-08-17 07:19:30 51°16.893 2°53.094 324.9 12.2 321 7.9
2011-08-17 07:19:34 51°16.903 2°53.08 325.3 12.2 320 7.8
2011-08-17 07:19:40 51°16.919 2°53.059 325.4 12.2 320 7.9
2011-08-17 07:19:45 51°16.932 2°53.042 325.4 12.2 320 5.8
2011-08-17 07:19:50 51°16.945 2°53.025 325 12.3 320 7.9
2011-08-17 07:19:55 51°16.958 2°53.008 324.6 12.3 320 8.1
2011-08-17 07:20:00 51°16.971 2°52.99 324.7 12.4 320 8.1
2011-08-17 07:20:05 51°16.984 2°52.972 324.5 12.4 320 8.4
2011-08-17 07:20:10 51°16.998 2°52.955 325 12.5 321 8.4
2011-08-17 07:20:15 51°17.011 2°52.937 325.4 12.6 321 8.5
2011-08-17 07:20:20 51°17.025 2°52.92 325.4 12.6 321 8.5
2011-08-17 07:20:25 51°17.038 2°52.902 325.7 12.7 321 8.8
2011-08-17 07:20:30 51°17.052 2°52.884 325.5 12.7 321 9
2011-08-17 07:20:34 51°17.063 2°52.871 325.7 12.7 322 8.9
2011-08-17 07:20:40 51°17.08 2°52.85 326.1 12.7 322 9.1
2011-08-17 07:20:45 51°17.094 2°52.833 326.8 12.7 322 9.3
2011-08-17 07:20:50 51°17.108 2°52.816 327.2 12.7 323 9.3
2011-08-17 07:20:54 51°17.119 2°52.803 328.1 12.7 324 9.3
2011-08-17 07:21:00 51°17.136 2°52.783 328.8 12.6 325 9.3
2011-08-17 07:21:05 51°17.151 2°52.767 329.5 12.6 325 9.5
2011-08-17 07:21:10 51°17.165 2°52.751 329.5 12.6 324 9.2
2011-08-17 07:21:14 51°17.176 2°52.738 329.3 12.6 324 9.2
2011-08-17 07:21:20 51°17.193 2°52.717 328.9 12.6 323 9.3
2011-08-17 07:21:25 51°17.207 2°52.701 328.2 12.6 323 9.2
2011-08-17 07:21:30 51°17.22 2°52.683 327.7 12.6 322 9.2
2011-08-17 07:21:34 51°17.231 2°52.67 327 12.6 322 9.2
2011-08-17 07:21:40 51°17.248 2°52.649 326.7 12.6 322 9.1
2011-08-17 07:21:45 51°17.261 2°52.631 326.5 12.6 321 9.4
2011-08-17 07:21:50 51°17.275 2°52.614 326.1 12.6 321 9.2
2011-08-17 07:21:55 51°17.289 2°52.596 325.6 12.6 320 9.3
2011-08-17 07:21:59 51°17.3 2°52.581 325.1 12.6 320 9.3
2011-08-17 07:22:05 51°17.316 2°52.559 324.5 12.7 319 9.5
2011-08-17 07:22:10 51°17.329 2°52.541 324.3 12.7 319 9.6
2011-08-17 07:22:14 51°17.339 2°52.526 323.4 12.7 318 9.6
2011-08-17 07:22:20 51°17.355 2°52.503 323.2 12.7 319 9.7
2011-08-17 07:22:25 51°17.368 2°52.485 322.9 12.7 318 9.9
2011-08-17 07:22:30 51°17.381 2°52.466 322.7 12.7 319 9.8
2011-08-17 07:22:34 51°17.392 2°52.451 323.1 12.7 319 9.7
2011-08-17 07:22:40 51°17.408 2°52.43 323.8 12.7 320 9.8
2011-08-17 07:22:45 51°17.422 2°52.412 324.8 12.7 321 9.8
2011-08-17 07:22:50 51°17.435 2°52.394 325.2 12.7 321 9.9
2011-08-17 07:22:54 51°17.446 2°52.38 325.7 12.6 321 9.7
2011-08-17 07:23:00 51°17.463 2°52.359 326 12.7 321 9.9
2011-08-17 07:23:05 51°17.476 2°52.342 326.2 12.6 321 9.9
2011-08-17 07:23:10 51°17.49 2°52.324 326.2 12.6 321 10
2011-08-17 07:23:14 51°17.501 2°52.31 326.2 12.6 322 9.8
2011-08-17 07:23:20 51°17.517 2°52.29 326.5 12.6 322 9.9
2011-08-17 07:23:25 51°17.531 2°52.272 326.7 12.6 322 10.1
2011-08-17 07:23:30 51°17.545 2°52.255 326.5 12.7 322 10.3
2011-08-17 07:23:34 51°17.556 2°52.241 327.2 12.7 323 10.5
2011-08-17 07:23:40 51°17.573 2°52.22 327.2 12.7 321 10.6
2011-08-17 07:23:45 51°17.586 2°52.203 326.3 12.7 321 10.5
2011-08-17 07:23:50 51°17.6 2°52.184 326 12.8 320 10.7
2011-08-17 07:23:55 51°17.614 2°52.166 325.1 12.8 320 10.7
2011-08-17 07:24:00 51°17.627 2°52.148 325 12.7 320 10.6
2011-08-17 07:24:05 51°17.641 2°52.13 324.8 12.7 320 10.8
2011-08-17 07:24:10 51°17.654 2°52.111 324.6 12.7 318 10.6
2011-08-17 07:24:14 51°17.664 2°52.096 323.1 12.7 317 10.5
2011-08-17 07:24:20 51°17.679 2°52.073 322.1 12.7 316 10.5
2011-08-17 07:24:25 51°17.692 2°52.053 321.3 12.8 316 10.5
2011-08-17 07:24:30 51°17.704 2°52.033 320.3 12.7 315 10.1
2011-08-17 07:24:34 51°17.714 2°52.017 319.3 12.7 314 10.1
2011-08-17 07:24:40 51°17.729 2°51.993 318.7 12.7 314 9.8
2011-08-17 07:24:45 51°17.741 2°51.972 318.2 12.7 313 9.7
2011-08-17 07:24:50 51°17.753 2°51.952 317.9 12.7 313 9.8
2011-08-17 07:24:54 51°17.763 2°51.936 317.9 12.7 314 9.7
2011-08-17 07:25:00 51°17.777 2°51.911 318.2 12.7 314 9.5
2011-08-17 07:25:05 51°17.79 2°51.891 318.4 12.7 314 9.6
2011-08-17 07:25:10 51°17.802 2°51.871 318.6 12.7 314 9.6
2011-08-17 07:25:14 51°17.811 2°51.855 318.5 12.7 314 9.7
2011-08-17 07:25:20 51°17.826 2°51.831 318.5 12.8 314 9.5
2011-08-17 07:25:25 51°17.839 2°51.811 318.7 12.7 315 9.5
2011-08-17 07:25:30 51°17.851 2°51.791 319.1 12.7 315 9.6
2011-08-17 07:25:34 51°17.861 2°51.775 319.2 12.8 314 9.6
2011-08-17 07:25:39 51°17.874 2°51.755 318.9 12.8 314 9.6
2011-08-17 07:25:45 51°17.889 2°51.731 319.1 12.8 316 9.7
2011-08-17 07:25:50 51°17.902 2°51.712 320.2 12.8 318 9.7
2011-08-17 07:25:55 51°17.915 2°51.694 322.8 12.7 320 9.7
2011-08-17 07:26:00 51°17.929 2°51.675 324.1 12.7 320 9.8
2011-08-17 07:26:05 51°17.942 2°51.658 325 12.7 321 9.7
2011-08-17 07:26:10 51°17.956 2°51.64 325.6 12.7 321 9.9
2011-08-17 07:26:14 51°17.967 2°51.626 326.2 12.8 321 10
2011-08-17 07:26:20 51°17.984 2°51.605 326.2 12.8 321 10
2011-08-17 07:26:25 51°17.997 2°51.587 326.2 12.8 321 10
2011-08-17 07:26:30 51°18.011 2°51.569 326.2 12.8 321 10.1
2011-08-17 07:26:34 51°18.022 2°51.555 326 12.8 321 10.3
2011-08-17 07:26:40 51°18.039 2°51.533 325.7 12.8 320 10.5
2011-08-17 07:26:45 51°18.052 2°51.515 325.7 12.8 321 10.6
2011-08-17 07:26:50 51°18.066 2°51.497 325.6 12.8 320 10.5
2011-08-17 07:26:55 51°18.08 2°51.478 324.7 12.9 320 10.6
2011-08-17 07:27:00 51°18.093 2°51.46 324.5 12.9 319 10.7
2011-08-17 07:27:05 51°18.107 2°51.441 324.2 12.9 319 10.9
2011-08-17 07:27:10 51°18.12 2°51.422 324.2 12.9 319 11
2011-08-17 07:27:14 51°18.13 2°51.407 323.7 12.9 318 11.1
2011-08-17 07:27:20 51°18.146 2°51.383 322.8 12.9 316 11
2011-08-17 07:27:25 51°18.159 2°51.363 321.3 12.9 315 11.3
2011-08-17 07:27:30 51°18.171 2°51.342 319.8 12.9 313 11.2
2011-08-17 07:27:34 51°18.181 2°51.326 318.6 13 314 11.3
2011-08-17 07:27:39 51°18.194 2°51.305 318.6 13 314 11.6
2011-08-17 07:27:45 51°18.208 2°51.28 318.3 12.9 313 11.6
2011-08-17 07:27:50 51°18.221 2°51.26 318.4 12.9 315 11.8
2011-08-17 07:27:54 51°18.231 2°51.244 319.3 12.9 315 11.9
2011-08-17 07:28:00 51°18.247 2°51.22 319.7 12.9 317 11.9
2011-08-17 07:28:05 51°18.26 2°51.201 321.6 12.8 319 12.1
2011-08-17 07:28:10 51°18.273 2°51.183 323.7 12.5 320 12
2011-08-17 07:28:14 51°18.284 2°51.17 325.2 12 321 12.2
2011-08-17 07:28:20 51°18.299 2°51.151 326 11.7 322 12.3
2011-08-17 07:28:25 51°18.312 2°51.136 327.6 11.3 324 12.3
2011-08-17 07:28:30 51°18.325 2°51.123 329.4 11 326 12.5
2011-08-17 07:28:34 51°18.335 2°51.113 331.9 10.6 328 12.5
2011-08-17 07:28:40 51°18.349 2°51.099 334 10 329 12.8
2011-08-17 07:28:45 51°18.361 2°51.089 335.8 9.5 331 12.7
2011-08-17 07:28:50 51°18.372 2°51.079 337.7 9.2 332 12.7
2011-08-17 07:28:55 51°18.383 2°51.071 339.4 8.7 333 12.8
2011-08-17 07:29:00 51°18.392 2°51.063 340.5 8 333 12.8
2011-08-17 07:29:05 51°18.403 2°51.055 341.4 8.7 333 13
2011-08-17 07:29:10 51°18.411 2°51.049 343 7.3 336 13
2011-08-17 07:29:15 51°18.419 2°51.044 344.9 6.5 338 13
2011-08-17 07:29:20 51°18.427 2°51.039 347.7 6 340 13.1
2011-08-17 07:29:25 51°18.435 2°51.036 351.1 5.6 343 13.3
2011-08-17 07:29:30 51°18.442 2°51.033 354.1 5.2 344 13.2
2011-08-17 07:29:34 51°18.447 2°51.031 356.7 4.9 347 13
2011-08-17 07:29:40 51°18.454 2°51.029 359.6 4.5 349 13.2
2011-08-17 07:29:45 51°18.46 2°51.027 2.2 4.2 351 13.1
2011-08-17 07:29:50 51°18.465 2°51.026 4.5 4 352 13.3
2011-08-17 07:29:54 51°18.47 2°51.025 6.8 3.8 354 13.2
2011-08-17 07:29:59 51°18.474 2°51.024 8.7 3.6 354 13.1
2011-08-17 07:30:05 51°18.48 2°51.024 10.3 3.3 357 13.4
2011-08-17 07:30:10 51°18.484 2°51.023 11.8 3.2 355 13.3
2011-08-17 07:30:14 51°18.488 2°51.023 12.8 3 357 13.3
2011-08-17 07:30:20 51°18.492 2°51.023 13.3 2.9 356 13.5
2011-08-17 07:30:25 51°18.496 2°51.022 13.8 2.7 356 13.3
2011-08-17 07:30:30 51°18.5 2°51.021 14.5 2.5 354 13.4
2011-08-17 07:30:35 51°18.502 2°51.021 14.6 2.2 350 13.3
2011-08-17 07:30:39 51°18.504 2°51.02 13.3 1.8 345 13.4
2011-08-17 07:30:45 51°18.507 2°51.018 11.1 1.6 337 13.4
2011-08-17 07:30:50 51°18.509 2°51.017 8.1 1.4 331 13.2
2011-08-17 07:30:54 51°18.51 2°51.016 5.1 1.3 325 13.3
2011-08-17 07:31:00 51°18.511 2°51.014 2.5 1.2 324 13.5
2011-08-17 07:31:05 51°18.513 2°51.012 0.3 1.3 321 13.6
2011-08-17 07:31:10 51°18.514 2°51.011 358.1 1.2 322 13.5
2011-08-17 07:31:15 51°18.516 2°51.009 356.8 1.2 320 13.5
2011-08-17 07:31:20 51°18.517 2°51.007 355.4 1.2 316 13.4
2011-08-17 07:31:25 51°18.518 2°51.005 354.3 1.2 315 13.5
2011-08-17 07:31:30 51°18.519 2°51.003 353.4 1.3 313 13.4
2011-08-17 07:31:34 51°18.52 2°51.002 352.7 1.2 313 13.5
2011-08-17 07:31:40 51°18.521 2°50.999 352 1.2 309 13.5
2011-08-17 07:31:45 51°18.522 2°50.997 351.5 1.2 306 13.6
2011-08-17 07:31:50 51°18.523 2°50.995 350.7 1.2 305 13.4
2011-08-17 07:31:54 51°18.524 2°50.993 350.3 1.2 307 13.4
2011-08-17 07:32:00 51°18.525 2°50.991 349.8 1.2 304 13.5
2011-08-17 07:32:05 51°18.525 2°50.988 349.4 1.2 304 13.4
2011-08-17 07:32:10 51°18.526 2°50.986 349.2 1.2 303 13.3
2011-08-17 07:32:14 51°18.527 2°50.985 348.9 1.2 303 13.4
2011-08-17 07:32:20 51°18.528 2°50.982 348.4 1.2 301 13.4
2011-08-17 07:32:25 51°18.529 2°50.98 348.1 1.1 298 13.3
2011-08-17 07:32:30 51°18.529 2°50.978 347.5 1.1 298 13.5
2011-08-17 07:32:34 51°18.53 2°50.976 347.2 1.1 297 13.5
2011-08-17 07:32:40 51°18.531 2°50.973 347 1.1 297 13.5
2011-08-17 07:32:45 51°18.531 2°50.971 346.6 1.1 296 13.5
2011-08-17 07:32:50 51°18.532 2°50.969 346.2 1.1 294 13.5
2011-08-17 07:32:54 51°18.533 2°50.967 345.8 1.1 293 13.4
2011-08-17 07:33:00 51°18.533 2°50.965 345.6 1.1 293 13.6
2011-08-17 07:33:05 51°18.534 2°50.963 345.2 1.1 293 13.6
2011-08-17 07:33:10 51°18.534 2°50.96 344.9 1.1 291 13.6
2011-08-17 07:33:15 51°18.535 2°50.958 344.5 1 291 13.3
2011-08-17 07:33:20 51°18.535 2°50.956 344.1 1 287 13.4
2011-08-17 07:33:25 51°18.535 2°50.954 343.9 1 288 13.5
2011-08-17 07:33:30 51°18.536 2°50.951 343.5 1.1 286 13.4
2011-08-17 07:33:35 51°18.536 2°50.949 343.2 1 287 13.6
2011-08-17 07:33:40 51°18.537 2°50.947 342.7 1 284 13.5
2011-08-17 07:33:45 51°18.537 2°50.945 342.2 1 284 13.5
2011-08-17 07:33:50 51°18.537 2°50.943 341.8 1 284 13.6
2011-08-17 07:33:54 51°18.537 2°50.941 341.2 1 283 13.5
2011-08-17 07:34:00 51°18.538 2°50.938 340.7 1 285 13.3
2011-08-17 07:34:05 51°18.538 2°50.936 340.3 1 282 13.4
2011-08-17 07:34:10 51°18.538 2°50.934 340 1 284 13.6
2011-08-17 07:34:14 51°18.539 2°50.932 339.8 1 282 13.6
2011-08-17 07:34:19 51°18.539 2°50.93 339.6 1 281 13.5
2011-08-17 07:34:25 51°18.539 2°50.928 339.3 1 279 13.5
2011-08-17 07:34:30 51°18.539 2°50.925 339.1 1 279 13.5
2011-08-17 07:34:34 51°18.54 2°50.924 339 1 277 13.6
2011-08-17 07:34:40 51°18.54 2°50.921 338.6 1 276 13.5
2011-08-17 07:34:45 51°18.54 2°50.919 338.2 1 276 13.5
2011-08-17 07:34:50 51°18.54 2°50.917 337.9 1 277 13.6
2011-08-17 07:34:54 51°18.54 2°50.915 337.6 1 276 13.5
2011-08-17 07:35:00 51°18.54 2°50.913 337.2 1 274 13.4
2011-08-17 07:35:05 51°18.54 2°50.911 336.8 0.9 273 13.4
2011-08-17 07:35:10 51°18.54 2°50.909 336.5 0.9 274 13.5
2011-08-17 07:35:15 51°18.54 2°50.907 336.1 0.9 273 13.5
2011-08-17 07:35:20 51°18.54 2°50.904 336 0.9 272 13.5
2011-08-17 07:35:25 51°18.54 2°50.902 335.8 0.9 272 13.6
2011-08-17 07:35:30 51°18.541 2°50.9 335.5 1 271 13.6
2011-08-17 07:35:34 51°18.541 2°50.898 335.3 0.9 272 13.6
2011-08-17 07:35:40 51°18.541 2°50.896 335.1 0.9 271 13.7
2011-08-17 07:35:45 51°18.541 2°50.894 334.8 0.9 270 13.6
2011-08-17 07:35:50 51°18.541 2°50.892 334.8 0.9 270 13.6
2011-08-17 07:35:54 51°18.541 2°50.89 334.6 0.9 271 13.5
2011-08-17 07:36:00 51°18.541 2°50.888 334.5 0.9 272 13.6
2011-08-17 07:36:05 51°18.541 2°50.886 334.5 0.9 270 13.7
2011-08-17 07:36:10 51°18.541 2°50.883 334.4 0.9 268 13.4
2011-08-17 07:36:14 51°18.541 2°50.882 334.4 0.9 267 13.5
2011-08-17 07:36:20 51°18.541 2°50.88 334.3 0.9 267 13.6
2011-08-17 07:36:25 51°18.541 2°50.878 334.2 0.9 267 13.7
2011-08-17 07:36:30 51°18.541 2°50.876 334 0.9 267 13.6
2011-08-17 07:36:34 51°18.54 2°50.874 334 0.9 266 13.6
2011-08-17 07:36:40 51°18.54 2°50.872 334 0.9 266 13.7
2011-08-17 07:36:45 51°18.54 2°50.87 334 0.9 265 13.6
2011-08-17 07:36:50 51°18.54 2°50.868 334.3 0.9 264 13.6
2011-08-17 07:36:55 51°18.54 2°50.866 334.4 0.9 264 13.7
2011-08-17 07:36:59 51°18.54 2°50.864 334.5 0.9 265 13.6
2011-08-17 07:37:05 51°18.54 2°50.862 334.4 0.9 265 13.5
2011-08-17 07:37:10 51°18.539 2°50.86 334.4 0.9 263 13.5
2011-08-17 07:37:15 51°18.539 2°50.858 334.4 0.9 262 13.7
2011-08-17 07:37:20 51°18.539 2°50.856 334.4 0.9 263 13.7
2011-08-17 07:37:25 51°18.539 2°50.855 334.2 0.8 264 13.7
2011-08-17 07:37:30 51°18.539 2°50.853 334.1 0.9 264 13.7
2011-08-17 07:37:34 51°18.538 2°50.851 334.1 0.9 261 13.5
2011-08-17 07:37:40 51°18.538 2°50.849 334 0.9 260 13.5
2011-08-17 07:37:45 51°18.538 2°50.847 334 0.8 260 13.7
2011-08-17 07:37:50 51°18.538 2°50.845 334 0.9 261 13.7
2011-08-17 07:37:54 51°18.538 2°50.844 334 0.8 262 13.6
2011-08-17 07:38:00 51°18.537 2°50.841 334.1 0.8 262 13.5
2011-08-17 07:38:05 51°18.537 2°50.84 334.2 0.8 262 13.5
2011-08-17 07:38:10 51°18.537 2°50.838 334.2 0.8 260 13.5
2011-08-17 07:38:15 51°18.537 2°50.836 334.4 0.8 260 13.5
2011-08-17 07:38:20 51°18.537 2°50.834 334.4 0.8 261 13.6
2011-08-17 07:38:25 51°18.536 2°50.832 334.4 0.8 262 13.4
2011-08-17 07:38:30 51°18.536 2°50.831 334.4 0.8 260 13.4
2011-08-17 07:38:34 51°18.536 2°50.829 334.4 0.8 258 13.4
2011-08-17 07:38:40 51°18.536 2°50.827 334.4 0.9 258 13.5
2011-08-17 07:38:45 51°18.535 2°50.825 334.3 0.9 257 13.5
2011-08-17 07:38:50 51°18.535 2°50.823 334.2 0.8 258 13.6
2011-08-17 07:38:54 51°18.535 2°50.822 334.1 0.9 258 13.5
2011-08-17 07:39:00 51°18.534 2°50.82 334 0.8 257 13.6
2011-08-17 07:39:05 51°18.534 2°50.818 334 0.8 257 13.7
2011-08-17 07:39:10 51°18.534 2°50.816 334 0.8 257 13.6
2011-08-17 07:39:15 51°18.534 2°50.814 334 0.8 255 13.5